createdAt,value
2022-11-29T00:00:20.366Z,4.08
2022-11-29T00:00:52.665Z,4.06
2022-11-29T00:01:29.016Z,4.03
2022-11-29T00:02:01.203Z,4.01
2022-11-29T00:02:36.083Z,3.99
2022-11-29T00:03:08.355Z,3.98
2022-11-29T00:03:40.522Z,3.98
2022-11-29T00:04:15.171Z,3.98
2022-11-29T00:04:47.297Z,3.99
2022-11-29T00:05:19.380Z,3.99
2022-11-29T00:05:54.362Z,4.00
2022-11-29T00:06:28.148Z,4.00
2022-11-29T00:07:02.824Z,3.98
2022-11-29T00:07:34.945Z,3.97
2022-11-29T00:08:07.179Z,3.96
2022-11-29T00:08:41.340Z,3.98
2022-11-29T00:09:16.440Z,3.98
2022-11-29T00:09:48.517Z,3.97
2022-11-29T00:10:20.610Z,3.98
2022-11-29T00:10:55.296Z,3.97
2022-11-29T00:11:44.669Z,3.97
2022-11-29T00:12:16.809Z,3.92
2022-11-29T00:12:51.533Z,3.94
2022-11-29T00:13:26.230Z,3.95
2022-11-29T00:13:58.285Z,3.96
2022-11-29T00:14:32.965Z,3.98
2022-11-29T00:15:05.751Z,3.98
2022-11-29T00:15:38.589Z,3.99
2022-11-29T00:16:14.864Z,3.99
2022-11-29T00:16:51.110Z,3.97
2022-11-29T00:17:23.277Z,3.96
2022-11-29T00:17:57.947Z,3.97
2022-11-29T00:18:30.029Z,3.96
2022-11-29T00:19:02.725Z,3.96
2022-11-29T00:19:38.878Z,3.97
2022-11-29T00:20:12.373Z,3.96
2022-11-29T00:20:44.452Z,3.97
2022-11-29T00:21:19.125Z,3.97
2022-11-29T00:21:51.384Z,3.96
2022-11-29T00:22:25.255Z,3.94
2022-11-29T00:22:59.931Z,3.92
2022-11-29T00:23:32.049Z,3.91
2022-11-29T00:24:04.549Z,3.91
2022-11-29T00:24:39.303Z,3.93
2022-11-29T00:25:11.418Z,3.95
2022-11-29T00:25:43.479Z,3.94
2022-11-29T00:26:15.554Z,3.95
2022-11-29T00:26:50.277Z,3.94
2022-11-29T00:27:22.382Z,3.91
2022-11-29T00:27:57.500Z,3.90
2022-11-29T00:28:32.182Z,3.87
2022-11-29T00:29:04.424Z,3.87
2022-11-29T00:29:36.623Z,3.88
2022-11-29T00:30:12.565Z,3.88
2022-11-29T00:30:44.747Z,3.88
2022-11-29T00:31:18.113Z,3.87
2022-11-29T00:31:52.813Z,3.87
2022-11-29T00:32:24.908Z,3.87
2022-11-29T00:32:57.253Z,3.89
2022-11-29T00:33:31.925Z,3.89
2022-11-29T00:34:04.809Z,3.89
2022-11-29T00:34:39.870Z,3.89
2022-11-29T00:35:12.387Z,3.88
2022-11-29T00:35:44.481Z,3.88
2022-11-29T00:36:19.419Z,3.88
2022-11-29T00:36:51.571Z,3.87
2022-11-29T00:37:23.711Z,3.86
2022-11-29T00:37:58.426Z,3.87
2022-11-29T00:38:30.592Z,3.87
2022-11-29T00:39:03.419Z,3.88
2022-11-29T00:39:38.091Z,3.89
2022-11-29T00:40:10.997Z,3.90
2022-11-29T00:40:43.114Z,3.88
2022-11-29T00:41:15.270Z,3.86
2022-11-29T00:41:49.934Z,3.87
2022-11-29T00:42:22.016Z,3.85
2022-11-29T00:42:56.673Z,3.85
2022-11-29T00:43:28.812Z,3.81
2022-11-29T00:44:03.745Z,3.79
2022-11-29T00:44:35.872Z,3.78
2022-11-29T00:45:09.571Z,3.80
2022-11-29T00:45:44.336Z,3.81
2022-11-29T00:46:16.600Z,3.79
2022-11-29T00:46:49.534Z,3.79
2022-11-29T00:47:24.185Z,3.80
2022-11-29T00:47:56.294Z,3.82
2022-11-29T00:48:28.457Z,3.81
2022-11-29T00:49:03.393Z,3.81
2022-11-29T00:49:35.520Z,3.80
2022-11-29T00:50:08.423Z,3.79
2022-11-29T00:50:43.159Z,3.77
2022-11-29T00:51:15.299Z,3.76
2022-11-29T00:51:47.515Z,3.74
2022-11-29T00:52:22.241Z,3.73
2022-11-29T00:52:54.306Z,3.72
2022-11-29T00:53:26.374Z,3.73
2022-11-29T00:53:58.477Z,3.74
2022-11-29T00:54:33.243Z,3.73
2022-11-29T00:55:06.555Z,3.74
2022-11-29T00:55:38.637Z,3.75
2022-11-29T00:56:11.155Z,3.76
2022-11-29T00:56:45.838Z,3.73
2022-11-29T00:57:17.964Z,3.71
2022-11-29T00:57:50.050Z,3.73
2022-11-29T00:58:27.543Z,3.74
2022-11-29T00:58:59.649Z,3.72
2022-11-29T00:59:34.314Z,3.74
2022-11-29T01:00:09.474Z,3.72
2022-11-29T01:00:42.391Z,3.71
2022-11-29T01:01:17.309Z,3.71
2022-11-29T01:01:49.559Z,3.71
2022-11-29T01:02:24.414Z,3.72
2022-11-29T01:02:56.696Z,3.73
2022-11-29T01:03:28.784Z,3.74
2022-11-29T01:04:04.609Z,3.75
2022-11-29T01:04:36.702Z,3.76
2022-11-29T01:05:09.376Z,3.77
2022-11-29T01:05:44.202Z,3.76
2022-11-29T01:06:18.789Z,3.77
2022-11-29T01:06:51.193Z,3.79
2022-11-29T01:07:25.897Z,3.80
2022-11-29T01:07:58.174Z,3.82
2022-11-29T01:08:30.326Z,3.84
2022-11-29T01:09:05.066Z,3.84
2022-11-29T01:09:37.180Z,3.85
2022-11-29T01:10:10.261Z,3.86
2022-11-29T01:10:45.033Z,3.86
2022-11-29T01:11:19.891Z,3.85
2022-11-29T01:11:52.085Z,3.86
2022-11-29T01:12:26.772Z,3.85
2022-11-29T01:12:58.877Z,3.82
2022-11-29T01:13:33.836Z,3.82
2022-11-29T01:14:08.513Z,3.80
2022-11-29T01:14:40.582Z,3.75
2022-11-29T01:15:13.320Z,3.72
2022-11-29T01:15:47.957Z,3.69
2022-11-29T01:16:20.534Z,3.72
2022-11-29T01:16:55.337Z,3.72
2022-11-29T01:17:27.441Z,3.71
2022-11-29T01:17:59.913Z,3.72
2022-11-29T01:18:32.562Z,3.73
2022-11-29T01:19:07.828Z,3.73
2022-11-29T01:19:39.929Z,3.70
2022-11-29T01:20:13.666Z,3.69
2022-11-29T01:20:45.789Z,3.69
2022-11-29T01:21:22.920Z,3.68
2022-11-29T01:21:55.061Z,3.67
2022-11-29T01:22:27.206Z,3.64
2022-11-29T01:23:02.038Z,3.62
2022-11-29T01:23:35.918Z,3.62
2022-11-29T01:24:10.698Z,3.63
2022-11-29T01:24:43.080Z,3.65
2022-11-29T01:25:15.797Z,3.66
2022-11-29T01:25:56.805Z,3.67
2022-11-29T01:26:33.621Z,3.65
2022-11-29T01:27:05.759Z,3.64
2022-11-29T01:27:37.885Z,3.64
2022-11-29T01:28:09.933Z,3.65
2022-11-29T01:28:49.125Z,3.65
2022-11-29T01:29:21.192Z,3.60
2022-11-29T01:29:53.283Z,3.58
2022-11-29T01:30:28.367Z,3.59
2022-11-29T01:31:05.918Z,3.61
2022-11-29T01:31:40.684Z,3.59
2022-11-29T01:32:12.816Z,3.60
2022-11-29T01:32:44.937Z,3.58
2022-11-29T01:33:17.004Z,3.59
2022-11-29T01:33:51.858Z,3.62
2022-11-29T01:34:23.906Z,3.64
2022-11-29T01:34:55.966Z,3.66
2022-11-29T01:35:30.728Z,3.69
2022-11-29T01:36:03.813Z,3.71
2022-11-29T01:36:36.008Z,3.75
2022-11-29T01:37:10.702Z,3.76
2022-11-29T01:37:42.789Z,3.77
2022-11-29T01:38:14.910Z,3.76
2022-11-29T01:38:49.633Z,3.76
2022-11-29T01:39:21.705Z,3.74
2022-11-29T01:39:53.789Z,3.74
2022-11-29T01:40:28.451Z,3.72
2022-11-29T01:41:03.586Z,3.73
2022-11-29T01:41:37.559Z,3.74
2022-11-29T01:42:13.477Z,3.74
2022-11-29T01:42:45.530Z,3.73
2022-11-29T01:43:18.525Z,3.74
2022-11-29T01:44:03.483Z,3.74
2022-11-29T01:45:06.142Z,3.71
2022-11-29T01:45:41.415Z,3.70
2022-11-29T01:46:13.566Z,3.69
2022-11-29T01:46:47.578Z,3.67
2022-11-29T01:47:22.322Z,3.66
2022-11-29T01:47:58.150Z,3.65
2022-11-29T01:48:33.518Z,3.65
2022-11-29T01:49:12.297Z,3.64
2022-11-29T01:49:47.696Z,3.57
2022-11-29T01:50:21.167Z,3.52
2022-11-29T01:50:58.018Z,3.48
2022-11-29T01:51:31.813Z,3.45
2022-11-29T01:52:06.766Z,3.44
2022-11-29T01:52:41.967Z,3.42
2022-11-29T01:53:15.090Z,3.45
2022-11-29T01:53:47.323Z,3.47
2022-11-29T01:54:23.718Z,3.48
2022-11-29T01:54:58.644Z,3.48
2022-11-29T01:55:31.291Z,3.50
2022-11-29T01:56:07.905Z,3.49
2022-11-29T01:56:40.470Z,3.50
2022-11-29T01:57:13.635Z,3.50
2022-11-29T01:57:48.437Z,3.50
2022-11-29T01:58:21.079Z,3.49
2022-11-29T01:58:53.273Z,3.49
2022-11-29T01:59:32.478Z,3.49
2022-11-29T02:00:09.002Z,3.48
2022-11-29T02:00:47.422Z,3.47
2022-11-29T02:01:22.303Z,3.49
2022-11-29T02:02:00.581Z,3.50
2022-11-29T02:02:37.075Z,3.51
2022-11-29T02:03:14.073Z,3.52
2022-11-29T02:03:46.339Z,3.52
2022-11-29T02:04:19.516Z,3.53
2022-11-29T02:04:51.813Z,3.53
2022-11-29T02:05:28.065Z,3.53
2022-11-29T02:06:01.725Z,3.54
2022-11-29T02:06:34.497Z,3.56
2022-11-29T02:07:09.154Z,3.57
2022-11-29T02:07:43.473Z,3.57
2022-11-29T02:08:20.577Z,3.56
2022-11-29T02:08:55.262Z,3.56
2022-11-29T02:09:27.405Z,3.56
2022-11-29T02:09:59.792Z,3.56
2022-11-29T02:10:45.403Z,3.57
2022-11-29T02:11:55.073Z,3.47
2022-11-29T02:12:40.594Z,3.43
2022-11-29T02:13:20.570Z,3.42
2022-11-29T02:14:08.392Z,3.42
2022-11-29T02:14:55.489Z,3.41
2022-11-29T02:15:46.130Z,3.38
2022-11-29T02:16:24.885Z,3.38
2022-11-29T02:17:02.620Z,3.40
2022-11-29T02:17:51.111Z,3.41
2022-11-29T02:18:37.237Z,3.35
2022-11-29T02:19:31.845Z,3.34
2022-11-29T02:20:32.828Z,3.34
2022-11-29T02:21:32.685Z,3.36
2022-11-29T02:22:10.823Z,3.37
2022-11-29T02:22:50.625Z,3.39
2022-11-29T02:23:55.104Z,3.38
2022-11-29T02:24:55.726Z,3.27
2022-11-29T02:25:48.959Z,3.21
2022-11-29T02:26:36.578Z,3.23
2022-11-29T02:27:38.098Z,3.26
2022-11-29T02:28:35.898Z,3.28
2022-11-29T02:29:32.416Z,3.28
2022-11-29T02:30:19.732Z,3.28
2022-11-29T02:31:26.285Z,3.30
2022-11-29T02:32:44.486Z,3.33
2022-11-29T02:33:51.735Z,3.33
2022-11-29T02:34:58.667Z,3.34
2022-11-29T02:35:46.822Z,3.37
2022-11-29T02:36:44.841Z,3.37
2022-11-29T02:37:32.683Z,3.37
2022-11-29T02:38:21.289Z,3.38
2022-11-29T02:39:40.746Z,3.37
2022-11-29T02:40:27.598Z,3.34
2022-11-29T02:41:25.155Z,3.30
2022-11-29T02:42:21.724Z,3.26
2022-11-29T02:43:19.472Z,3.23
2022-11-29T02:44:16.622Z,3.22
2022-11-29T02:45:07.391Z,3.21
2022-11-29T02:45:52.824Z,3.23
2022-11-29T02:47:02.119Z,3.24
2022-11-29T02:47:55.568Z,3.24
2022-11-29T02:48:45.121Z,3.20
2022-11-29T02:49:29.691Z,3.21
2022-11-29T02:50:19.450Z,3.17
2022-11-29T02:51:01.456Z,3.17
2022-11-29T02:51:41.330Z,3.18
2022-11-29T02:52:20.857Z,3.19
2022-11-29T02:53:05.858Z,3.17
2022-11-29T02:53:44.191Z,3.17
2022-11-29T02:54:24.102Z,3.19
2022-11-29T02:55:07.376Z,3.21
2022-11-29T02:55:47.649Z,3.22
2022-11-29T02:56:28.466Z,3.24
2022-11-29T02:57:10.059Z,3.27
2022-11-29T02:57:50.613Z,3.28
2022-11-29T02:58:27.987Z,3.26
2022-11-29T02:59:12.271Z,3.25
2022-11-29T02:59:53.437Z,3.22
2022-11-29T03:00:26.169Z,3.23
2022-11-29T03:01:08.940Z,3.22
2022-11-29T03:01:52.483Z,3.17
2022-11-29T03:02:37.302Z,3.17
2022-11-29T03:03:20.547Z,3.15
2022-11-29T03:04:02.782Z,3.17
2022-11-29T03:04:46.010Z,3.17
2022-11-29T03:05:24.809Z,3.19
2022-11-29T03:06:06.497Z,3.21
2022-11-29T03:06:49.434Z,3.23
2022-11-29T03:07:27.508Z,3.24
2022-11-29T03:08:08.839Z,3.24
2022-11-29T03:08:51.442Z,3.25
2022-11-29T03:09:32.784Z,3.25
2022-11-29T03:10:09.927Z,3.22
2022-11-29T03:10:55.290Z,3.22
2022-11-29T03:11:33.013Z,3.23
2022-11-29T03:12:16.513Z,3.22
2022-11-29T03:12:54.274Z,3.24
2022-11-29T03:13:38.234Z,3.24
2022-11-29T03:14:17.437Z,3.24
2022-11-29T03:15:00.295Z,3.24
2022-11-29T03:15:37.609Z,3.24
2022-11-29T03:16:19.232Z,3.24
2022-11-29T03:17:02.803Z,3.24
2022-11-29T03:17:47.894Z,3.24
2022-11-29T03:18:34.597Z,3.26
2022-11-29T03:19:31.507Z,3.30
2022-11-29T03:20:26.408Z,3.29
2022-11-29T03:21:12.687Z,3.30
2022-11-29T03:21:53.289Z,3.31
2022-11-29T03:22:39.961Z,3.31
2022-11-29T03:23:24.848Z,3.32
2022-11-29T03:24:01.423Z,3.34
2022-11-29T03:24:40.169Z,3.35
2022-11-29T03:25:22.322Z,3.36
2022-11-29T03:26:01.489Z,3.37
2022-11-29T03:26:41.654Z,3.37
2022-11-29T03:27:24.125Z,3.38
2022-11-29T03:28:01.450Z,3.38
2022-11-29T03:28:39.642Z,3.41
2022-11-29T03:29:22.303Z,3.43
2022-11-29T03:29:58.884Z,3.43
2022-11-29T03:30:34.690Z,3.43
2022-11-29T03:31:15.987Z,3.44
2022-11-29T03:31:54.445Z,3.44
2022-11-29T03:32:34.265Z,3.43
2022-11-29T03:33:15.780Z,3.36
2022-11-29T03:33:58.253Z,3.33
2022-11-29T03:34:48.609Z,3.32
2022-11-29T03:35:29.888Z,3.33
2022-11-29T03:36:08.231Z,3.35
2022-11-29T03:36:51.279Z,3.38
2022-11-29T03:37:29.813Z,3.41
2022-11-29T03:38:09.681Z,3.43
2022-11-29T03:38:47.334Z,3.46
2022-11-29T03:39:25.052Z,3.48
2022-11-29T03:40:08.853Z,3.47
2022-11-29T03:40:50.412Z,3.47
2022-11-29T03:41:27.787Z,3.47
2022-11-29T03:42:06.414Z,3.47
2022-11-29T03:42:44.339Z,3.45
2022-11-29T03:43:25.431Z,3.42
2022-11-29T03:44:04.348Z,3.41
2022-11-29T03:44:44.693Z,3.39
2022-11-29T03:45:22.172Z,3.33
2022-11-29T03:46:00.715Z,3.33
2022-11-29T03:46:40.790Z,3.36
2022-11-29T03:47:15.532Z,3.36
2022-11-29T03:47:54.978Z,3.38
2022-11-29T03:48:34.353Z,3.37
2022-11-29T03:49:13.881Z,3.39
2022-11-29T03:49:49.869Z,3.39
2022-11-29T03:50:28.826Z,3.41
2022-11-29T03:51:05.901Z,3.41
2022-11-29T03:51:59.210Z,3.40
2022-11-29T03:52:41.011Z,3.32
2022-11-29T03:53:20.193Z,3.27
2022-11-29T03:53:57.613Z,3.25
2022-11-29T03:54:37.952Z,3.25
2022-11-29T03:55:19.697Z,3.19
2022-11-29T03:55:57.728Z,3.20
2022-11-29T03:56:32.464Z,3.22
2022-11-29T03:57:05.300Z,3.24
2022-11-29T03:57:52.495Z,3.28
2022-11-29T03:58:41.159Z,3.23
2022-11-29T03:59:29.327Z,3.20
2022-11-29T04:00:06.896Z,3.19
2022-11-29T04:01:18.059Z,3.20
2022-11-29T04:02:19.893Z,3.17
2022-11-29T04:03:34.493Z,3.14
2022-11-29T04:04:34.798Z,3.15
2022-11-29T04:05:22.387Z,3.14
2022-11-29T04:06:24.410Z,3.11
2022-11-29T04:07:14.776Z,3.10
2022-11-29T04:08:10.828Z,3.08
2022-11-29T04:09:04.794Z,3.06
2022-11-29T04:09:53.473Z,3.06
2022-11-29T04:10:48.625Z,3.08
2022-11-29T04:12:01.545Z,3.05
2022-11-29T04:13:02.901Z,3.05
2022-11-29T04:13:59.361Z,3.05
2022-11-29T04:14:56.298Z,3.03
2022-11-29T04:15:52.800Z,2.97
2022-11-29T04:17:00.400Z,2.94
2022-11-29T04:18:09.195Z,2.94
2022-11-29T04:19:06.713Z,2.95
2022-11-29T04:20:09.500Z,2.99
2022-11-29T04:21:26.415Z,3.00
2022-11-29T04:22:30.582Z,3.01
2022-11-29T04:23:41.145Z,3.03
2022-11-29T04:24:39.021Z,3.01
2022-11-29T04:25:34.846Z,3.02
2022-11-29T04:26:34.877Z,3.03
2022-11-29T04:27:29.265Z,3.00
2022-11-29T04:28:23.191Z,3.00
2022-11-29T04:29:24.530Z,2.96
2022-11-29T04:30:09.494Z,2.96
2022-11-29T04:30:53.308Z,2.94
2022-11-29T04:31:40.780Z,2.94
2022-11-29T04:32:28.990Z,2.94
2022-11-29T04:33:30.365Z,2.95
2022-11-29T04:34:44.813Z,2.97
2022-11-29T04:35:36.698Z,2.93
2022-11-29T04:36:46.718Z,2.91
2022-11-29T04:37:51.937Z,2.88
2022-11-29T04:38:53.835Z,2.89
2022-11-29T04:40:04.122Z,2.90
2022-11-29T04:40:56.131Z,2.89
2022-11-29T04:42:04.081Z,2.88
2022-11-29T04:43:08.781Z,2.90
2022-11-29T04:44:13.804Z,2.92
2022-11-29T04:45:03.006Z,2.92
2022-11-29T04:46:08.270Z,2.93
2022-11-29T04:46:57.999Z,2.91
2022-11-29T04:47:51.092Z,2.93
2022-11-29T04:48:40.048Z,2.96
2022-11-29T04:49:32.960Z,2.97
2022-11-29T04:50:25.859Z,3.00
2022-11-29T04:51:15.843Z,3.04
2022-11-29T04:52:05.060Z,3.04
2022-11-29T04:52:50.426Z,3.04
2022-11-29T04:53:32.973Z,3.04
2022-11-29T04:54:16.906Z,3.03
2022-11-29T04:54:56.967Z,3.04
2022-11-29T04:55:42.817Z,3.04
2022-11-29T04:56:23.373Z,3.05
2022-11-29T04:57:01.987Z,3.06
2022-11-29T04:57:42.860Z,3.06
2022-11-29T04:58:23.945Z,3.05
2022-11-29T04:59:06.991Z,3.06
2022-11-29T04:59:44.821Z,3.05
2022-11-29T05:00:20.611Z,3.07
2022-11-29T05:01:04.884Z,3.09
2022-11-29T05:01:48.180Z,3.09
2022-11-29T05:02:32.673Z,3.09
2022-11-29T05:03:14.513Z,3.11
2022-11-29T05:03:57.031Z,3.13
2022-11-29T05:04:43.929Z,3.15
2022-11-29T05:05:27.433Z,3.13
2022-11-29T05:06:19.363Z,3.10
2022-11-29T05:07:02.920Z,3.09
2022-11-29T05:07:47.507Z,3.11
2022-11-29T05:08:29.579Z,3.10
2022-11-29T05:09:18.213Z,3.10
2022-11-29T05:09:59.633Z,3.09
2022-11-29T05:10:39.566Z,3.10
2022-11-29T05:11:26.483Z,3.11
2022-11-29T05:12:08.152Z,3.12
2022-11-29T05:12:51.870Z,3.14
2022-11-29T05:13:37.130Z,3.15
2022-11-29T05:14:16.889Z,3.13
2022-11-29T05:15:20.273Z,3.10
2022-11-29T07:29:13.957Z,3.00
2022-11-29T07:29:58.606Z,2.98
2022-11-29T07:30:40.077Z,2.98
2022-11-29T07:31:22.441Z,2.97
2022-11-29T07:32:06.577Z,2.94
2022-11-29T07:32:52.105Z,2.95
2022-11-29T07:33:37.103Z,2.95
2022-11-29T07:34:18.478Z,2.96
2022-11-29T07:35:03.903Z,2.99
2022-11-29T07:35:46.057Z,3.01
2022-11-29T07:36:28.674Z,3.04
2022-11-29T07:37:08.062Z,3.05
2022-11-29T07:37:53.517Z,3.07
2022-11-29T07:38:45.301Z,3.11
2022-11-29T07:39:28.258Z,3.11
2022-11-29T07:40:06.695Z,3.11
2022-11-29T07:40:48.871Z,3.13
2022-11-29T07:41:27.442Z,3.13
2022-11-29T07:42:08.718Z,3.14
2022-11-29T07:42:55.087Z,3.15
2022-11-29T07:43:44.013Z,3.17
2022-11-29T07:44:27.078Z,3.18
2022-11-29T07:45:12.212Z,3.19
2022-11-29T07:45:44.359Z,3.19
2022-11-29T07:46:16.505Z,3.17
2022-11-29T07:46:51.280Z,3.12
2022-11-29T07:47:23.394Z,3.11
2022-11-29T07:47:55.972Z,3.12
2022-11-29T07:48:30.656Z,3.12
2022-11-29T07:49:02.796Z,3.13
2022-11-29T07:49:34.894Z,3.14
2022-11-29T07:50:11.010Z,3.14
2022-11-29T07:50:43.985Z,3.11
2022-11-29T07:51:16.081Z,3.15
2022-11-29T07:51:51.061Z,3.15
2022-11-29T07:52:23.197Z,3.11
2022-11-29T07:52:56.180Z,3.06
2022-11-29T07:53:31.666Z,3.04
2022-11-29T07:54:04.729Z,3.03
2022-11-29T07:54:36.803Z,3.02
2022-11-29T07:55:18.900Z,3.02
2022-11-29T07:55:51.628Z,2.96
2022-11-29T07:56:23.725Z,2.94
2022-11-29T07:56:58.424Z,2.94
2022-11-29T07:57:30.513Z,2.95
2022-11-29T07:58:02.696Z,2.98
2022-11-29T07:58:37.429Z,3.00
2022-11-29T07:59:12.941Z,3.00
2022-11-29T07:59:50.215Z,2.98
2022-11-29T08:00:23.333Z,2.97
2022-11-29T08:00:58.068Z,2.98
2022-11-29T08:01:31.510Z,3.01
2022-11-29T08:02:11.472Z,3.03
2022-11-29T08:02:44.179Z,2.98
2022-11-29T08:03:18.958Z,3.00
2022-11-29T08:03:51.064Z,3.00
2022-11-29T08:04:25.969Z,3.01
2022-11-29T08:04:58.731Z,3.03
2022-11-29T08:05:30.873Z,3.06
2022-11-29T08:06:05.768Z,3.08
2022-11-29T08:06:38.115Z,3.05
2022-11-29T08:07:13.257Z,3.07
2022-11-29T08:07:46.497Z,3.06
2022-11-29T08:08:21.407Z,3.08
2022-11-29T08:08:53.579Z,3.10
2022-11-29T08:09:25.684Z,3.14
2022-11-29T08:10:00.396Z,3.16
2022-11-29T08:10:32.983Z,3.17
2022-11-29T08:11:13.211Z,3.17
2022-11-29T08:11:45.289Z,3.14
2022-11-29T08:12:20.002Z,3.12
2022-11-29T08:12:52.228Z,3.11
2022-11-29T08:13:27.036Z,3.10
2022-11-29T08:14:00.357Z,3.09
2022-11-29T08:14:32.810Z,3.10
2022-11-29T08:15:12.077Z,3.12
2022-11-29T08:15:45.416Z,3.13
2022-11-29T08:16:20.900Z,3.17
2022-11-29T08:16:53.070Z,3.15
2022-11-29T08:17:27.783Z,3.14
2022-11-29T08:17:59.861Z,3.14
2022-11-29T08:18:32.032Z,3.15
2022-11-29T08:19:07.005Z,3.14
2022-11-29T08:19:39.106Z,3.12
2022-11-29T08:20:16.516Z,3.10
2022-11-29T08:20:49.242Z,3.07
2022-11-29T08:21:23.990Z,3.05
2022-11-29T08:21:56.175Z,3.03
2022-11-29T08:22:30.859Z,3.05
2022-11-29T08:23:03.495Z,3.07
2022-11-29T08:23:38.619Z,3.10
2022-11-29T08:24:10.980Z,3.09
2022-11-29T08:24:45.949Z,3.08
2022-11-29T08:25:18.314Z,3.08
2022-11-29T08:25:53.018Z,3.08
2022-11-29T08:26:31.079Z,3.04
2022-11-29T08:27:06.370Z,2.97
2022-11-29T08:27:39.428Z,3.03
2022-11-29T08:28:11.558Z,3.05
2022-11-29T08:28:46.577Z,3.06
2022-11-29T08:29:18.913Z,3.07
2022-11-29T08:29:53.585Z,3.08
2022-11-29T08:30:28.251Z,3.08
2022-11-29T08:31:01.918Z,3.06
2022-11-29T08:31:36.669Z,3.06
2022-11-29T08:32:09.212Z,3.07
2022-11-29T08:32:41.274Z,3.08
2022-11-29T08:33:15.955Z,3.10
2022-11-29T08:33:48.263Z,3.10
2022-11-29T08:34:23.032Z,3.13
2022-11-29T08:34:55.109Z,3.15
2022-11-29T08:35:27.201Z,3.17
2022-11-29T08:36:07.659Z,3.19
2022-11-29T08:36:39.524Z,3.11
2022-11-29T08:37:11.916Z,3.12
2022-11-29T08:37:46.776Z,3.14
2022-11-29T08:38:18.862Z,3.14
2022-11-29T08:39:00.085Z,3.16
2022-11-29T08:39:34.473Z,3.14
2022-11-29T08:40:10.573Z,3.17
2022-11-29T08:40:45.245Z,3.19
2022-11-29T08:41:17.794Z,3.21
2022-11-29T08:41:52.577Z,3.19
2022-11-29T08:42:24.634Z,3.21
2022-11-29T08:42:57.990Z,3.22
2022-11-29T08:43:33.565Z,3.24
2022-11-29T08:44:05.950Z,3.25
2022-11-29T08:44:40.808Z,3.28
2022-11-29T08:45:13.382Z,3.31
2022-11-29T08:45:54.468Z,3.32
2022-11-29T08:46:46.966Z,3.35
2022-11-29T08:47:34.130Z,3.33
2022-11-29T08:48:09.672Z,3.33
2022-11-29T08:48:42.037Z,3.35
2022-11-29T08:49:14.182Z,3.37
2022-11-29T08:50:07.210Z,3.37
2022-11-29T08:50:41.973Z,3.35
2022-11-29T08:51:14.609Z,3.36
2022-11-29T08:51:46.685Z,3.39
2022-11-29T08:52:33.798Z,3.39
2022-11-29T08:53:20.883Z,3.35
2022-11-29T08:53:55.580Z,3.33
2022-11-29T08:54:27.785Z,3.35
2022-11-29T08:55:03.280Z,3.35
2022-11-29T08:55:40.685Z,3.37
2022-11-29T08:57:04.471Z,3.37
2022-11-29T08:58:05.725Z,3.22
2022-11-29T08:58:38.608Z,3.19
2022-11-29T08:59:13.534Z,3.19
2022-11-29T08:59:46.087Z,3.19
2022-11-29T09:00:19.411Z,3.19
2022-11-29T09:00:56.852Z,3.17
2022-11-29T09:01:29.407Z,3.15
2022-11-29T09:02:01.798Z,3.17
2022-11-29T09:02:36.625Z,3.19
2022-11-29T09:03:23.871Z,3.20
2022-11-29T09:04:07.721Z,3.22
2022-11-29T09:04:42.427Z,3.24
2022-11-29T09:05:15.314Z,3.26
2022-11-29T09:05:50.268Z,3.29
2022-11-29T09:06:22.381Z,3.29
2022-11-29T09:06:57.058Z,3.31
2022-11-29T09:07:29.164Z,3.32
2022-11-29T09:08:03.929Z,3.32
2022-11-29T09:08:36.001Z,3.32
2022-11-29T09:09:10.695Z,3.33
2022-11-29T09:09:42.755Z,3.34
2022-11-29T09:10:17.573Z,3.35
2022-11-29T09:10:49.669Z,3.36
2022-11-29T09:11:25.549Z,3.36
2022-11-29T09:11:57.714Z,3.38
2022-11-29T09:12:29.783Z,3.36
2022-11-29T09:13:04.455Z,3.39
2022-11-29T09:13:36.527Z,3.37
2022-11-29T09:14:14.642Z,3.37
2022-11-29T09:14:46.942Z,3.34
2022-11-29T09:15:21.990Z,3.29
2022-11-29T09:15:57.640Z,3.26
2022-11-29T09:16:33.791Z,3.24
2022-11-29T09:17:06.042Z,3.23
2022-11-29T09:17:40.724Z,3.24
2022-11-29T09:18:12.825Z,3.27
2022-11-29T09:18:51.291Z,3.27
2022-11-29T09:19:26.585Z,3.27
2022-11-29T09:19:58.661Z,3.29
2022-11-29T09:20:30.788Z,3.31
2022-11-29T09:21:09.070Z,3.34
2022-11-29T09:21:41.137Z,3.34
2022-11-29T09:22:15.877Z,3.37
2022-11-29T09:22:47.945Z,3.38
2022-11-29T09:23:22.603Z,3.39
2022-11-29T09:23:58.924Z,3.38
2022-11-29T09:24:33.865Z,3.33
2022-11-29T09:25:07.117Z,3.33
2022-11-29T09:25:39.355Z,3.30
2022-11-29T09:26:18.920Z,3.29
2022-11-29T09:26:51.006Z,3.25
2022-11-29T09:27:25.784Z,3.25
2022-11-29T09:28:01.371Z,3.26
2022-11-29T09:28:34.507Z,3.27
2022-11-29T09:29:09.826Z,3.29
2022-11-29T09:29:41.959Z,3.28
2022-11-29T09:30:16.999Z,3.27
2022-11-29T09:30:55.300Z,3.27
2022-11-29T09:31:31.466Z,3.27
2022-11-29T09:32:06.327Z,3.29
2022-11-29T09:32:38.496Z,3.29
2022-11-29T09:33:10.590Z,3.32
2022-11-29T09:33:45.698Z,3.31
2022-11-29T09:34:18.767Z,3.34
2022-11-29T09:34:53.487Z,3.35
2022-11-29T09:35:25.706Z,3.35
2022-11-29T09:35:58.198Z,3.36
2022-11-29T09:36:33.339Z,3.34
2022-11-29T09:37:05.819Z,3.32
2022-11-29T09:37:37.958Z,3.30
2022-11-29T09:38:14.632Z,3.31
2022-11-29T09:38:46.857Z,3.29
2022-11-29T09:39:21.794Z,3.32
2022-11-29T09:39:53.869Z,3.31
2022-11-29T09:40:36.483Z,3.33
2022-11-29T09:41:32.778Z,3.31
2022-11-29T09:42:42.430Z,3.22
2022-11-29T09:43:22.325Z,3.21
2022-11-29T09:44:07.525Z,3.25
2022-11-29T09:44:51.423Z,3.25
2022-11-29T09:45:32.921Z,3.22
2022-11-29T09:46:18.309Z,3.17
2022-11-29T09:47:04.961Z,3.09
2022-11-29T09:48:16.353Z,3.04
2022-11-29T09:49:13.838Z,3.03
2022-11-29T09:49:57.511Z,3.07
2022-11-29T09:50:36.950Z,3.10
2022-11-29T09:51:18.277Z,3.13
2022-11-29T09:51:57.963Z,3.17
2022-11-29T09:52:41.078Z,3.20
2022-11-29T09:53:30.143Z,3.23
2022-11-29T09:54:18.024Z,3.24
2022-11-29T09:55:00.122Z,3.28
2022-11-29T09:55:49.802Z,3.28
2022-11-29T09:56:31.684Z,3.26
2022-11-29T09:57:10.531Z,3.22
2022-11-29T09:57:46.806Z,3.21
2022-11-29T09:58:23.104Z,3.22
2022-11-29T09:59:01.658Z,3.23
2022-11-29T09:59:37.802Z,3.23
2022-11-29T10:00:20.530Z,3.24
2022-11-29T10:00:56.714Z,3.25
2022-11-29T10:01:36.837Z,3.29
2022-11-29T10:02:21.381Z,3.30
2022-11-29T10:03:03.570Z,3.32
2022-11-29T10:03:41.165Z,3.29
2022-11-29T10:04:21.349Z,3.31
2022-11-29T10:04:59.241Z,3.29
2022-11-29T10:05:38.968Z,3.29
2022-11-29T10:06:24.731Z,3.29
2022-11-29T10:07:02.857Z,3.27
2022-11-29T10:07:44.158Z,3.29
2022-11-29T10:08:24.210Z,3.28
2022-11-29T10:09:04.593Z,3.25
2022-11-29T10:09:39.256Z,3.16
2022-11-29T10:10:21.405Z,3.15
2022-11-29T10:10:57.639Z,3.18
2022-11-29T10:11:38.725Z,3.18
2022-11-29T10:12:17.427Z,3.16
2022-11-29T10:12:56.401Z,3.17
2022-11-29T10:13:34.452Z,3.17
2022-11-29T10:14:15.925Z,3.19
2022-11-29T10:14:57.419Z,3.20
2022-11-29T10:15:35.736Z,3.19
2022-11-29T10:16:14.506Z,3.18
2022-11-29T10:16:55.551Z,3.20
2022-11-29T10:17:37.246Z,3.19
2022-11-29T10:18:19.679Z,3.21
2022-11-29T10:18:58.752Z,3.22
2022-11-29T10:19:39.337Z,3.25
2022-11-29T10:20:15.663Z,3.25
2022-11-29T10:20:53.429Z,3.26
2022-11-29T10:21:29.767Z,3.26
2022-11-29T10:22:08.881Z,3.29
2022-11-29T10:22:49.590Z,3.27
2022-11-29T10:23:30.243Z,3.29
2022-11-29T10:24:10.083Z,3.30
2022-11-29T10:24:48.111Z,3.31
2022-11-29T10:25:24.660Z,3.32
2022-11-29T10:26:00.914Z,3.33
2022-11-29T10:26:35.454Z,3.35
2022-11-29T10:27:17.079Z,3.37
2022-11-29T10:27:49.396Z,3.37
2022-11-29T10:28:27.552Z,3.40
2022-11-29T10:29:00.152Z,3.41
2022-11-29T10:29:34.822Z,3.43
2022-11-29T10:30:14.386Z,3.44
2022-11-29T10:30:49.500Z,3.43
2022-11-29T10:31:25.369Z,3.44
2022-11-29T10:32:10.060Z,3.48
2022-11-29T10:32:49.033Z,3.48
2022-11-29T10:33:27.085Z,3.49
2022-11-29T10:34:01.684Z,3.50
2022-11-29T10:34:36.813Z,3.49
2022-11-29T10:35:13.479Z,3.48
2022-11-29T10:35:48.819Z,3.46
2022-11-29T10:36:27.857Z,3.43
2022-11-29T10:37:03.389Z,3.41
2022-11-29T10:37:35.734Z,3.39
2022-11-29T10:38:30.796Z,3.38
2022-11-29T10:39:14.463Z,3.35
2022-11-29T10:39:52.007Z,3.36
2022-11-29T10:40:32.718Z,3.37
2022-11-29T10:41:12.338Z,3.39
2022-11-29T10:41:44.474Z,3.37
2022-11-29T10:42:33.896Z,3.38
2022-11-29T10:48:41.041Z,3.01
2022-11-29T10:49:17.773Z,2.99
2022-11-29T10:49:52.486Z,2.99
2022-11-29T10:50:26.883Z,2.99
2022-11-29T10:51:02.001Z,3.02
2022-11-29T10:51:35.092Z,3.04
2022-11-29T10:52:20.996Z,3.06
2022-11-29T10:52:59.944Z,3.03
2022-11-29T10:53:38.941Z,3.03
2022-11-29T10:54:31.777Z,3.04
2022-11-29T10:55:07.249Z,3.06
2022-11-29T10:55:43.532Z,3.09
2022-11-29T10:56:27.556Z,3.14
2022-11-29T10:57:01.467Z,3.14
2022-11-29T10:57:36.222Z,3.15
2022-11-29T10:58:16.951Z,3.17
2022-11-29T10:59:03.241Z,3.17
2022-11-29T10:59:35.486Z,3.17
2022-11-29T11:00:13.398Z,3.21
2022-11-29T11:00:54.223Z,3.23
2022-11-29T11:01:29.962Z,3.23
2022-11-29T11:02:04.206Z,3.26
2022-11-29T11:02:40.124Z,3.28
2022-11-29T11:03:17.432Z,3.28
2022-11-29T11:03:57.669Z,3.28